Time;durP1;ratioP1;P1;durP2;ratioP2;P2;SDS_P1;SDS_P2;PMS_P1;PMS_P2;Temp;Humidity;BMP_temperature;BMP_pressure;BME280_temperature;BME280_humidity;BME280_pressure;Samples;Min_cycle;Max_cycle;Signal;HPM_P1;HPM_P2
2022/05/19 00:02:21;;;;;;;1.48;1.00;;;13.20;63.20;;;;;;4993088;28;20037;-68
2022/05/19 00:04:48;;;;;;;8.23;1.65;;;13.20;63.90;;;;;;4994069;28;20074;-68
2022/05/19 00:07:16;;;;;;;3.50;1.30;;;13.20;63.60;;;;;;4992987;28;20359;-68
2022/05/19 00:09:44;;;;;;;2.38;1.00;;;13.30;63.80;;;;;;4993208;28;20519;-68
2022/05/19 00:12:16;;;;;;;6.38;1.15;;;13.30;63.60;;;;;;4993877;28;20469;-68
2022/05/19 00:14:43;;;;;;;2.45;1.27;;;13.30;63.50;;;;;;4992740;28;20030;-68
2022/05/19 00:17:10;;;;;;;4.05;1.63;;;13.30;63.60;;;;;;4992510;28;20425;-68
2022/05/19 00:19:37;;;;;;;5.68;1.48;;;13.30;63.50;;;;;;4993356;28;20393;-68
2022/05/19 00:22:05;;;;;;;1.95;1.15;;;13.30;64.10;;;;;;4992667;28;20421;-68
2022/05/19 00:24:32;;;;;;;3.90;1.75;;;13.30;64.00;;;;;;4993811;28;20034;-68
2022/05/19 00:26:59;;;;;;;2.50;1.10;;;13.30;63.60;;;;;;4992138;28;20030;-68
2022/05/19 00:29:27;;;;;;;3.78;1.13;;;13.30;63.30;;;;;;4992256;28;20449;-68
2022/05/19 00:31:55;;;;;;;4.68;1.67;;;13.30;63.30;;;;;;4992469;28;20193;-68
2022/05/19 00:34:22;;;;;;;4.60;1.30;;;13.40;63.70;;;;;;4992520;28;20026;-68
2022/05/19 00:36:56;;;;;;;2.33;1.30;;;13.40;65.20;;;;;;4993874;28;20084;-68
2022/05/19 00:39:23;;;;;;;5.18;1.38;;;13.40;64.40;;;;;;4992399;28;20022;-69
2022/05/19 00:42:43;;;;;;;4.93;1.60;;;13.40;63.90;;;;;;4992091;28;20109;-68
2022/05/19 00:44:37;;;;;;;2.72;1.45;;;13.50;64.20;;;;;;4992956;28;20037;-68
2022/05/19 00:47:04;;;;;;;3.15;1.35;;;13.50;63.30;;;;;;4993216;28;20023;-68
2022/05/19 00:49:39;;;;;;;8.52;1.60;;;13.60;63.70;;;;;;4993044;28;20035;-68
2022/05/19 00:52:19;;;;;;;5.30;1.48;;;13.60;64.10;;;;;;4992200;28;20030;-68
2022/05/19 00:54:49;;;;;;;2.60;1.23;;;13.70;63.70;;;;;;4992094;28;20027;-68
2022/05/19 00:57:25;;;;;;;3.92;1.20;;;13.70;62.70;;;;;;4975968;28;20034;-68
2022/05/19 01:00:13;;;;;;;2.80;1.00;;;13.70;62.20;;;;;;4975625;28;20508;-68
2022/05/19 01:02:50;;;;;;;5.82;1.40;;;13.70;62.20;;;;;;4991685;28;20046;-69
2022/05/19 01:05:25;;;;;;;3.47;1.13;;;13.80;61.50;;;;;;4976193;28;20050;-67
2022/05/19 01:07:58;;;;;;;2.53;1.15;;;13.80;61.80;;;;;;4991226;28;20027;-69
2022/05/19 01:10:25;;;;;;;2.90;1.10;;;13.90;61.00;;;;;;4976046;28;20090;-67
2022/05/19 01:12:52;;;;;;;4.68;1.42;;;13.90;61.00;;;;;;4992813;28;20054;-67
2022/05/19 01:15:20;;;;;;;2.17;1.20;;;14.00;61.00;;;;;;4975331;28;20492;-67
2022/05/19 01:17:48;;;;;;;2.50;1.00;;;14.00;60.50;;;;;;4992509;28;20026;-67
2022/05/19 01:20:18;;;;;;;2.55;1.00;;;14.00;59.80;;;;;;4975640;28;20030;-67
2022/05/19 01:22:54;;;;;;;3.20;1.05;;;14.10;59.60;;;;;;4991581;28;20084;-67
2022/05/19 01:25:43;;;;;;;2.00;0.90;;;14.10;60.20;;;;;;4992298;28;20034;-67
2022/05/19 01:28:10;;;;;;;1.92;1.00;;;14.10;60.00;;;;;;4992400;28;20026;-67
2022/05/19 01:30:38;;;;;;;3.78;1.05;;;14.20;59.20;;;;;;4973867;28;20488;-69
2022/05/19 01:33:05;;;;;;;3.15;1.20;;;14.20;59.40;;;;;;4991318;28;20034;-69
2022/05/19 01:35:33;;;;;;;4.35;1.23;;;14.20;59.50;;;;;;4992146;28;20032;-69
2022/05/19 01:38:09;;;;;;;1.67;1.00;;;14.20;59.30;;;;;;4992229;28;20026;-69
2022/05/19 01:41:12;;;;;;;6.32;1.05;;;14.20;59.60;;;;;;4975784;28;20026;-67
2022/05/19 01:43:51;;;;;;;4.28;1.10;;;14.30;59.20;;;;;;4991679;28;20029;-67
2022/05/19 01:46:36;;;;;;;3.35;1.30;;;14.30;59.40;;;;;;4990756;28;20064;-67
2022/05/19 01:49:25;;;;;;;3.55;1.20;;;14.40;60.40;;;;;;4992609;28;20030;-67
2022/05/19 01:52:01;;;;;;;3.10;1.30;;;14.40;59.80;;;;;;4990788;28;20451;-69
2022/05/19 01:54:39;;;;;;;2.47;1.17;;;14.50;58.90;;;;;;4989660;28;20048;-69
2022/05/19 01:57:15;;;;;;;2.15;0.90;;;14.50;59.40;;;;;;4990693;28;20116;-68
2022/05/19 02:00:03;;;;;;;5.60;1.20;;;14.60;58.80;;;;;;4990722;28;20140;-67
2022/05/19 02:02:51;;;;;;;4.28;1.45;;;14.60;59.10;;;;;;4991423;28;20168;-68
2022/05/19 02:05:31;;;;;;;2.30;1.10;;;14.70;58.60;;;;;;4990454;28;20084;-67
2022/05/19 02:08:00;;;;;;;4.85;1.27;;;14.70;58.00;;;;;;4991972;28;20022;-68
2022/05/19 02:10:30;;;;;;;4.22;1.20;;;14.70;59.00;;;;;;4991003;28;20034;-67
2022/05/19 02:13:01;;;;;;;2.15;1.00;;;14.70;58.50;;;;;;4975122;28;20018;-68
2022/05/19 02:15:30;;;;;;;2.58;1.00;;;14.70;58.10;;;;;;4991159;28;20138;-67
2022/05/19 02:17:57;;;;;;;2.55;1.10;;;14.80;58.00;;;;;;4974828;28;20136;-67
2022/05/19 02:20:25;;;;;;;2.38;1.20;;;14.80;58.60;;;;;;4973961;28;20062;-67
2022/05/19 02:22:52;;;;;;;3.08;1.10;;;14.80;58.60;;;;;;4974684;28;20018;-67
2022/05/19 02:25:36;;;;;;;3.03;1.45;;;14.80;58.60;;;;;;4991802;28;20035;-67
2022/05/19 02:28:37;;;;;;;2.35;1.02;;;14.80;58.40;;;;;;4990577;28;20018;-67
2022/05/19 02:31:04;;;;;;;6.28;1.30;;;14.90;57.50;;;;;;4982109;28;20374;-68
2022/05/19 02:33:31;;;;;;;5.65;1.10;;;15.00;58.00;;;;;;4974205;28;20057;-69
2022/05/19 02:35:58;;;;;;;4.97;1.38;;;15.00;58.10;;;;;;4990336;28;20053;-68
2022/05/19 02:38:25;;;;;;;2.88;1.40;;;15.00;58.90;;;;;;4990693;28;20039;-68
2022/05/19 02:40:53;;;;;;;4.47;1.35;;;15.00;58.50;;;;;;4990700;28;20026;-69
2022/05/19 02:43:20;;;;;;;3.40;1.30;;;15.10;57.90;;;;;;4980669;28;20031;-69
2022/05/19 02:45:47;;;;;;;6.30;1.40;;;15.10;58.00;;;;;;4972628;28;20043;-69
2022/05/19 02:48:15;;;;;;;2.75;1.27;;;15.10;58.00;;;;;;4972393;28;20473;-69
2022/05/19 02:50:42;;;;;;;2.65;0.82;;;15.10;57.80;;;;;;4954942;28;20035;-68
2022/05/19 02:53:10;;;;;;;3.13;0.93;;;15.20;57.80;;;;;;4971037;28;20210;-69
2022/05/19 02:55:39;;;;;;;2.58;1.10;;;15.20;57.40;;;;;;4971815;28;20059;-69
2022/05/19 02:58:07;;;;;;;4.53;1.20;;;15.20;58.30;;;;;;4972631;28;20023;-68
2022/05/19 03:00:34;;;;;;;7.20;1.42;;;15.20;57.30;;;;;;4972482;28;20046;-68
2022/05/19 03:03:02;;;;;;;1.85;1.13;;;15.30;58.30;;;;;;4970651;28;20116;-68
2022/05/19 03:05:31;;;;;;;3.10;1.02;;;15.30;57.90;;;;;;4971792;28;20038;-69
2022/05/19 03:07:58;;;;;;;7.70;1.30;;;15.30;58.20;;;;;;4984986;28;20025;-69
2022/05/19 03:10:25;;;;;;;5.05;1.38;;;15.30;57.90;;;;;;4990750;28;20109;-68
2022/05/19 03:12:54;;;;;;;2.25;0.90;;;15.30;56.40;;;;;;4990326;28;20069;-68
2022/05/19 03:15:21;;;;;;;5.97;1.00;;;15.30;55.50;;;;;;4993989;28;20030;-69
2022/05/19 03:17:48;;;;;;;1.55;0.93;;;15.30;54.50;;;;;;4995213;28;20387;-68
2022/05/19 03:20:15;;;;;;;3.85;0.90;;;15.30;54.20;;;;;;4978076;28;20026;-68
2022/05/19 03:22:43;;;;;;;3.33;1.30;;;15.30;54.20;;;;;;4977893;28;20078;-68
2022/05/19 03:25:11;;;;;;;1.80;0.77;;;15.40;54.60;;;;;;4994863;28;20136;-69
2022/05/19 03:27:39;;;;;;;1.45;0.90;;;15.50;55.00;;;;;;4993524;28;20057;-69
2022/05/19 03:30:08;;;;;;;1.90;0.82;;;15.50;56.20;;;;;;4993569;28;20037;-69
2022/05/19 03:32:35;;;;;;;3.20;1.20;;;15.50;55.50;;;;;;4977468;28;20491;-69
2022/05/19 03:35:02;;;;;;;1.73;0.98;;;15.60;55.20;;;;;;4993645;28;20030;-69
2022/05/19 03:37:29;;;;;;;3.05;0.80;;;15.60;55.50;;;;;;4993439;28;20033;-69
2022/05/19 03:39:56;;;;;;;2.22;1.00;;;15.60;54.30;;;;;;4994907;28;20027;-69
2022/05/19 03:42:24;;;;;;;1.95;1.20;;;15.60;54.20;;;;;;4994444;28;20325;-68
2022/05/19 03:44:51;;;;;;;3.55;1.10;;;15.60;54.20;;;;;;4977174;28;20499;-70
2022/05/19 03:47:18;;;;;;;3.45;1.15;;;15.60;55.10;;;;;;4993323;28;20098;-69
2022/05/19 03:49:45;;;;;;;2.63;1.00;;;15.70;53.60;;;;;;4994660;28;20059;-69
2022/05/19 03:52:12;;;;;;;5.10;1.45;;;15.60;53.80;;;;;;4994348;28;20064;-69
2022/05/19 03:54:39;;;;;;;2.90;1.25;;;15.70;55.20;;;;;;4992677;28;20018;-68
2022/05/19 03:57:07;;;;;;;5.93;1.55;;;15.70;53.20;;;;;;4994893;28;20030;-69
2022/05/19 03:59:34;;;;;;;4.93;1.33;;;15.70;53.10;;;;;;4993087;28;20022;-69
2022/05/19 04:02:04;;;;;;;2.90;1.10;;;15.80;53.80;;;;;;4994335;28;20030;-69
2022/05/19 04:04:32;;;;;;;1.85;0.80;;;15.80;53.60;;;;;;4992686;28;20046;-69
2022/05/19 04:06:59;;;;;;;10.45;1.98;;;15.80;51.70;;;;;;4992537;28;20038;-68
2022/05/19 04:09:26;;;;;;;9.15;1.50;;;15.70;51.60;;;;;;4994187;28;20030;-69
2022/05/19 04:11:54;;;;;;;3.60;1.73;;;15.80;51.60;;;;;;4992819;28;20030;-69
2022/05/19 04:14:21;;;;;;;15.60;1.80;;;15.70;52.00;;;;;;4992682;28;20559;-69
2022/05/19 04:16:53;;;;;;;9.43;1.00;;;15.70;53.90;;;;;;4993950;28;20022;-68
2022/05/19 04:19:20;;;;;;;3.40;0.93;;;15.70;52.30;;;;;;4982710;28;20165;-69
2022/05/19 04:21:47;;;;;;;7.53;1.10;;;15.70;52.90;;;;;;4974533;28;20018;-69
2022/05/19 04:24:15;;;;;;;6.60;1.30;;;15.70;53.30;;;;;;4973830;28;20118;-68
2022/05/19 04:26:42;;;;;;;12.65;1.80;;;15.70;53.40;;;;;;4973192;28;20027;-68
2022/05/19 04:29:09;;;;;;;7.45;1.90;;;15.60;52.00;;;;;;4974343;28;20050;-69
2022/05/19 04:31:36;;;;;;;7.18;1.50;;;15.60;53.40;;;;;;4974291;28;20027;-69
2022/05/19 04:34:05;;;;;;;4.43;1.33;;;15.60;54.30;;;;;;4974459;28;20023;-69
2022/05/19 04:36:32;;;;;;;3.85;0.77;;;15.60;54.40;;;;;;4974415;28;20097;-68
2022/05/19 04:38:59;;;;;;;5.30;1.30;;;15.60;53.10;;;;;;4972925;28;20109;-68
2022/05/19 04:41:26;;;;;;;4.07;1.20;;;15.60;52.50;;;;;;4972936;28;20098;-69
2022/05/19 04:43:54;;;;;;;10.35;1.80;;;15.70;50.70;;;;;;4987355;28;20033;-69
2022/05/19 04:46:21;;;;;;;5.60;1.50;;;15.70;50.90;;;;;;4993626;28;20049;-68
2022/05/19 04:48:48;;;;;;;4.60;1.02;;;15.70;51.10;;;;;;4992186;28;20583;-68
2022/05/19 04:51:15;;;;;;;2.88;1.08;;;15.70;50.00;;;;;;4991883;28;20031;-68
2022/05/19 04:53:42;;;;;;;5.95;1.45;;;15.70;50.80;;;;;;4992108;28;20022;-68
2022/05/19 04:56:10;;;;;;;15.63;1.90;;;15.70;51.60;;;;;;4992214;28;20093;-69
2022/05/19 04:58:37;;;;;;;14.98;1.63;;;15.70;52.10;;;;;;4992802;28;20034;-69
2022/05/19 05:01:05;;;;;;;3.97;1.33;;;15.80;52.10;;;;;;4993192;28;20028;-69
2022/05/19 05:03:32;;;;;;;5.82;1.42;;;15.70;52.40;;;;;;4991577;28;20050;-69
2022/05/19 05:05:59;;;;;;;12.02;1.80;;;15.70;53.10;;;;;;4992803;28;20056;-69
2022/05/19 05:08:27;;;;;;;2.88;1.25;;;15.70;51.60;;;;;;4991237;28;20026;-69
2022/05/19 05:10:54;;;;;;;3.75;1.50;;;15.70;51.00;;;;;;4991595;28;20034;-69
2022/05/19 05:13:21;;;;;;;7.60;1.60;;;15.70;51.50;;;;;;4992735;28;20419;-69
2022/05/19 05:15:48;;;;;;;7.00;1.20;;;15.70;51.10;;;;;;4975076;28;20034;-69
2022/05/19 05:18:15;;;;;;;15.63;1.45;;;15.70;50.80;;;;;;4992840;28;20025;-69
2022/05/19 05:20:43;;;;;;;6.47;1.15;;;15.70;50.00;;;;;;4992754;28;20030;-69
2022/05/19 05:23:10;;;;;;;1.70;0.70;;;15.80;49.70;;;;;;4991288;28;20036;-69
2022/05/19 05:25:38;;;;;;;4.10;0.90;;;15.80;49.40;;;;;;4991381;28;20034;-68
2022/05/19 05:28:05;;;;;;;4.80;0.90;;;15.80;50.30;;;;;;4975175;28;20026;-69
2022/05/19 05:30:32;;;;;;;2.03;0.98;;;15.70;50.40;;;;;;4990529;28;20039;-68
2022/05/19 05:33:10;;;;;;;2.47;0.90;;;15.80;48.70;;;;;;4990870;28;20035;-69
2022/05/19 05:35:39;;;;;;;4.10;0.98;;;15.80;49.70;;;;;;4991398;28;20038;-68
2022/05/19 05:38:06;;;;;;;2.67;1.10;;;15.80;50.80;;;;;;4990610;28;20381;-69
2022/05/19 05:40:33;;;;;;;10.35;1.33;;;15.80;51.00;;;;;;4990632;28;20042;-69
2022/05/19 05:43:08;;;;;;;12.35;1.38;;;15.70;51.60;;;;;;4990306;28;20042;-69
2022/05/19 05:45:35;;;;;;;5.70;1.30;;;15.70;52.30;;;;;;4987725;28;20030;-69
2022/05/19 05:48:02;;;;;;;4.55;1.27;;;15.70;52.70;;;;;;4991832;28;20045;-69
2022/05/19 05:50:30;;;;;;;9.55;1.73;;;15.70;51.40;;;;;;4992396;28;20027;-69
2022/05/19 05:52:57;;;;;;;9.77;1.30;;;15.70;52.50;;;;;;4990971;28;20077;-70
2022/05/19 05:55:24;;;;;;;11.27;2.03;;;15.70;53.10;;;;;;4989260;28;20049;-69
2022/05/19 05:57:52;;;;;;;3.75;1.05;;;15.70;52.80;;;;;;4990733;28;20026;-69
2022/05/19 06:00:19;;;;;;;3.13;1.05;;;15.80;51.50;;;;;;4991008;28;20022;-69
2022/05/19 06:02:48;;;;;;;10.88;1.83;;;15.80;51.10;;;;;;4991983;28;20440;-69
2022/05/19 06:05:16;;;;;;;3.15;1.02;;;15.80;50.70;;;;;;4989789;28;20050;-69
2022/05/19 06:07:46;;;;;;;4.10;0.95;;;15.90;51.10;;;;;;4991598;28;20074;-69
2022/05/19 06:10:13;;;;;;;8.18;1.50;;;15.90;51.80;;;;;;4990794;28;20036;-69
2022/05/19 06:12:41;;;;;;;8.38;1.17;;;15.80;51.40;;;;;;4990847;28;20046;-69
2022/05/19 06:15:10;;;;;;;4.90;1.05;;;15.80;51.40;;;;;;4990109;28;20022;-69
2022/05/19 06:17:39;;;;;;;3.70;1.25;;;15.70;52.20;;;;;;4991987;28;20023;-69
2022/05/19 06:20:10;;;;;;;9.27;1.13;;;15.70;52.50;;;;;;4989559;28;20469;-69
2022/05/19 06:22:37;;;;;;;;;;;15.70;51.90;;;;;;4991129;28;20089;-70
2022/05/19 06:25:05;;;;;;;2.72;0.85;;;15.70;52.20;;;;;;4982335;28;19921;-68
2022/05/19 06:27:33;;;;;;;3.08;0.85;;;15.70;50.60;;;;;;4980964;28;20022;-68
2022/05/19 06:30:00;;;;;;;4.53;1.40;;;15.70;51.90;;;;;;4990505;28;20022;-70
2022/05/19 06:32:27;;;;;;;2.67;1.23;;;15.70;51.90;;;;;;4991298;28;20027;-69
2022/05/19 06:34:54;;;;;;;9.45;1.55;;;15.60;52.10;;;;;;4990807;28;20029;-69
2022/05/19 06:37:21;;;;;;;3.22;1.30;;;15.60;51.20;;;;;;4989344;28;20088;-69
2022/05/19 06:39:49;;;;;;;2.97;1.20;;;15.60;50.80;;;;;;4990687;28;20412;-69
2022/05/19 06:42:16;;;;;;;6.90;1.90;;;15.60;51.20;;;;;;4989445;28;20037;-69
2022/05/19 06:44:43;;;;;;;8.30;1.27;;;15.60;52.10;;;;;;4987508;28;20038;-68
2022/05/19 06:47:15;;;;;;;3.42;1.10;;;15.60;50.20;;;;;;4968777;28;20119;-66
2022/05/19 06:49:47;;;;;;;5.78;1.40;;;15.60;50.90;;;;;;4975127;28;20035;-66
2022/05/19 06:52:19;;;;;;;2.45;1.10;;;15.60;51.70;;;;;;4976524;28;20035;-66
2022/05/19 06:54:49;;;;;;;4.70;1.30;;;15.50;51.90;;;;;;4984592;28;20117;-64
2022/05/19 06:57:17;;;;;;;5.35;1.27;;;15.50;52.20;;;;;;4987159;28;20041;-66
2022/05/19 06:59:44;;;;;;;7.00;1.95;;;15.50;52.30;;;;;;4984962;28;20065;-66
2022/05/19 07:02:11;;;;;;;9.95;1.67;;;15.50;52.00;;;;;;4988955;28;20114;-66
2022/05/19 07:04:39;;;;;;;13.55;1.88;;;15.50;52.80;;;;;;4981873;28;20059;-66
2022/05/19 07:07:07;;;;;;;4.93;1.65;;;15.50;56.60;;;;;;4987841;28;20485;-66
2022/05/19 07:09:35;;;;;;;9.75;1.60;;;15.40;54.20;;;;;;4987963;28;20038;-65
2022/05/19 07:12:04;;;;;;;16.40;2.30;;;15.30;56.30;;;;;;4985826;28;20030;-65
2022/05/19 07:14:31;;;;;;;6.22;2.00;;;15.30;56.40;;;;;;4987307;28;20077;-64
2022/05/19 07:16:58;;;;;;;9.15;1.88;;;15.30;56.40;;;;;;4988029;28;20097;-66
2022/05/19 07:22:22;;;;;;;6.32;1.70;;;15.20;59.70;;;;;;4990218;28;20081;-65
2022/05/19 07:24:49;;;;;;;7.15;2.08;;;15.10;60.10;;;;;;4990796;28;20033;-67
2022/05/19 07:27:17;;;;;;;8.55;1.58;;;15.10;60.50;;;;;;4988832;28;20109;-67
2022/05/19 07:29:44;;;;;;;4.70;1.75;;;15.00;58.70;;;;;;4985467;28;20072;-66
2022/05/19 07:32:11;;;;;;;9.82;1.88;;;15.00;60.20;;;;;;4987526;28;20397;-66
2022/05/19 07:34:39;;;;;;;5.25;1.70;;;15.00;59.80;;;;;;4984206;28;20366;-65
2022/05/19 07:37:06;;;;;;;4.78;1.70;;;15.00;61.60;;;;;;4987108;28;20030;-65
2022/05/19 07:39:34;;;;;;;4.82;1.70;;;15.00;61.90;;;;;;4988223;28;20037;-67
2022/05/19 07:42:01;;;;;;;3.97;1.70;;;14.90;61.30;;;;;;4988341;28;20106;-67
2022/05/19 07:44:29;;;;;;;4.25;1.88;;;14.90;60.10;;;;;;4988559;28;20041;-66
2022/05/19 07:46:56;;;;;;;3.03;1.60;;;14.90;58.60;;;;;;4987660;28;20030;-67
2022/05/19 07:49:23;;;;;;;8.38;2.13;;;14.90;59.60;;;;;;4988554;28;20049;-67
2022/05/19 07:51:51;;;;;;;5.00;1.92;;;14.90;60.10;;;;;;4987740;28;20239;-66
2022/05/19 07:54:20;;;;;;;6.97;1.83;;;14.80;61.00;;;;;;4972253;28;20033;-65
2022/05/19 07:56:48;;;;;;;9.30;2.37;;;14.80;60.80;;;;;;4988232;28;20035;-66
2022/05/19 07:59:15;;;;;;;11.23;2.38;;;14.80;61.20;;;;;;4985404;28;20560;-66
2022/05/19 08:01:43;;;;;;;6.35;2.28;;;14.80;60.60;;;;;;4983072;28;20085;-67
2022/05/19 08:04:11;;;;;;;4.70;2.15;;;14.80;59.10;;;;;;4989038;28;20048;-65
2022/05/19 08:06:38;;;;;;;10.95;2.25;;;14.80;58.80;;;;;;4988525;28;20161;-66
2022/05/19 08:11:51;;;;;;;7.85;1.83;;;14.80;60.90;;;;;;4983523;28;20086;-66
2022/05/19 08:17:04;;;;;;;9.07;2.20;;;14.80;61.20;;;;;;4977563;28;20048;-67
2022/05/19 08:19:32;;;;;;;10.13;2.42;;;14.80;60.40;;;;;;4981965;28;20077;-66
2022/05/19 08:21:59;;;;;;;6.30;2.00;;;14.80;58.70;;;;;;4987183;28;20027;-66
2022/05/19 08:24:26;;;;;;;6.65;2.13;;;14.80;60.70;;;;;;4985108;28;20117;-67
2022/05/19 08:26:54;;;;;;;7.72;2.53;;;14.70;59.40;;;;;;4987103;28;20023;-67
2022/05/19 08:29:21;;;;;;;5.82;1.90;;;14.70;59.70;;;;;;4986310;28;20026;-68
2022/05/19 08:31:48;;;;;;;6.40;1.80;;;14.70;58.70;;;;;;4982299;28;20038;-67
2022/05/19 08:34:15;;;;;;;4.22;1.80;;;14.70;58.20;;;;;;4978549;28;20440;-67
2022/05/19 08:36:46;;;;;;;6.00;1.95;;;14.80;61.10;;;;;;4986493;28;20595;-67
2022/05/19 08:39:14;;;;;;;5.38;2.47;;;14.80;60.90;;;;;;4971227;28;20118;-66
2022/05/19 08:41:48;;;;;;;7.35;2.95;;;14.70;60.10;;;;;;4970905;28;20049;-67
2022/05/19 08:44:26;;;;;;;8.63;2.33;;;14.70;59.40;;;;;;4987316;28;20027;-67
2022/05/19 08:46:54;;;;;;;10.25;3.28;;;14.70;59.70;;;;;;4972975;28;20088;-67
2022/05/19 08:49:24;;;;;;;11.65;3.55;;;14.70;60.10;;;;;;4967418;28;20475;-67
2022/05/19 08:52:08;;;;;;;11.85;4.45;;;14.70;60.20;;;;;;4986439;28;20046;-67
2022/05/19 08:54:36;;;;;;;11.15;4.80;;;14.60;60.50;;;;;;4982961;28;20113;-67
2022/05/19 08:57:27;;;;;;;9.30;4.72;;;14.60;61.90;;;;;;4968408;28;20121;-67
2022/05/19 09:00:10;;;;;;;12.40;4.43;;;14.60;62.60;;;;;;4980903;28;20066;-67
2022/05/19 09:02:55;;;;;;;9.60;3.33;;;14.40;62.30;;;;;;4987810;28;20117;-67
2022/05/19 09:06:03;;;;;;;10.07;3.80;;;14.50;63.10;;;;;;4981666;28;20049;-66
2022/05/19 09:08:55;;;;;;;10.18;3.70;;;14.40;63.90;;;;;;4984415;28;20078;-66
2022/05/19 09:11:25;;;;;;;13.02;4.00;;;14.50;63.40;;;;;;4981138;28;20065;-67
2022/05/19 09:13:57;;;;;;;6.30;3.67;;;14.40;63.90;;;;;;4978584;28;20030;-67
2022/05/19 09:16:32;;;;;;;12.23;3.97;;;14.40;63.90;;;;;;4984204;28;20385;-67
2022/05/19 09:18:59;;;;;;;8.88;3.95;;;14.40;63.70;;;;;;4982468;28;20121;-67
2022/05/19 09:21:27;;;;;;;10.60;3.67;;;14.30;64.30;;;;;;4986531;28;20065;-67
2022/05/19 09:23:54;;;;;;;7.15;3.25;;;14.30;64.70;;;;;;4983316;28;20022;-67
2022/05/19 09:26:27;;;;;;;9.27;3.33;;;14.40;65.40;;;;;;4983220;28;20046;-65
2022/05/19 09:28:58;;;;;;;10.35;3.70;;;14.40;65.60;;;;;;4983631;28;20034;-67
2022/05/19 09:31:36;;;;;;;12.15;4.20;;;14.30;65.50;;;;;;4980768;28;20041;-64
2022/05/19 09:34:06;;;;;;;10.52;5.00;;;14.30;64.20;;;;;;4984108;28;20041;-68
2022/05/19 09:36:40;;;;;;;15.77;6.53;;;14.20;64.60;;;;;;4964380;28;20461;-66
2022/05/19 09:39:11;;;;;;;13.90;5.10;;;14.10;65.20;;;;;;4980702;28;20397;-67
2022/05/19 09:41:41;;;;;;;8.68;4.43;;;14.10;65.90;;;;;;4967069;28;20045;-70
2022/05/19 09:44:14;;;;;;;10.60;3.90;;;14.10;66.60;;;;;;4984039;28;20045;-69
2022/05/19 09:46:50;;;;;;;11.20;3.17;;;14.10;66.30;;;;;;4985473;28;20038;-68
2022/05/19 09:49:31;;;;;;;10.15;3.63;;;14.10;66.10;;;;;;4982329;28;20118;-68
2022/05/19 09:52:02;;;;;;;;;;;14.20;65.40;;;;;;4987013;28;20034;-70
2022/05/19 09:54:33;;;;;;;14.23;3.88;;;14.10;64.80;;;;;;4984531;28;20364;-69
2022/05/19 09:57:13;;;;;;;10.50;3.47;;;14.10;65.00;;;;;;4965200;28;20664;-69
2022/05/19 09:59:48;;;;;;;14.48;4.20;;;14.10;65.90;;;;;;4967593;28;20030;-69
2022/05/19 10:02:28;;;;;;;14.68;5.72;;;14.10;66.30;;;;;;4983274;28;20045;-69
2022/05/19 10:04:58;;;;;;;11.20;3.85;;;14.20;66.50;;;;;;4978628;28;20052;-70
2022/05/19 10:07:30;;;;;;;8.70;4.57;;;14.10;65.80;;;;;;4985799;28;20038;-69
2022/05/19 10:09:58;;;;;;;9.82;4.25;;;14.10;66.00;;;;;;4969926;28;20040;-69
2022/05/19 10:12:29;;;;;;;11.82;4.10;;;14.10;66.40;;;;;;4981050;28;20034;-70
2022/05/19 10:15:10;;;;;;;10.32;3.53;;;14.00;66.00;;;;;;4983823;28;20405;-70
2022/05/19 10:17:50;;;;;;;8.93;3.63;;;14.00;65.80;;;;;;4977741;28;20388;-71
2022/05/19 10:20:21;;;;;;;10.95;4.32;;;14.00;66.70;;;;;;4985287;28;20027;-71
2022/05/19 10:23:06;;;;;;;8.90;3.83;;;14.00;66.50;;;;;;4982557;28;20030;-73
2022/05/19 10:25:48;;;;;;;9.80;3.42;;;13.90;66.50;;;;;;4984881;28;20500;-70
2022/05/19 10:31:32;;;;;;;7.90;3.78;;;14.00;65.60;;;;;;4961293;28;20558;-68
2022/05/19 10:34:15;;;;;;;17.10;4.43;;;14.00;66.50;;;;;;4984429;28;20022;-70
2022/05/19 10:36:51;;;;;;;14.82;3.60;;;14.00;66.90;;;;;;4990723;28;20483;-67
2022/05/19 10:39:42;;;;;;;11.27;4.43;;;13.90;66.30;;;;;;4982909;28;20036;-69
2022/05/19 10:42:46;;;;;;;21.42;4.90;;;13.90;66.50;;;;;;4988518;28;20109;-72
2022/05/19 10:45:22;;;;;;;15.82;4.18;;;13.90;67.10;;;;;;4987538;28;20046;-72
2022/05/19 10:48:07;;;;;;;20.30;5.07;;;13.90;66.20;;;;;;4987837;28;20040;-72
2022/05/19 10:50:36;;;;;;;17.25;3.50;;;13.90;66.10;;;;;;4989696;28;20874;-68
2022/05/19 10:53:24;;;;;;;15.35;4.18;;;13.90;65.70;;;;;;4985896;28;20034;-70
2022/05/19 10:56:14;;;;;;;14.23;3.92;;;13.90;66.00;;;;;;4987290;28;20066;-68
2022/05/19 10:58:44;;;;;;;8.57;3.88;;;13.80;65.20;;;;;;4986509;28;20061;-67
2022/05/19 11:01:14;;;;;;;8.93;3.92;;;13.70;65.50;;;;;;4989804;28;20094;-69
2022/05/19 11:04:06;;;;;;;11.83;4.27;;;13.70;66.70;;;;;;4989871;28;20042;-71
2022/05/19 11:07:04;;;;;;;10.63;4.10;;;13.70;69.00;;;;;;4986768;28;20042;-69
2022/05/19 11:10:05;;;;;;;10.55;4.18;;;13.60;69.70;;;;;;4980600;28;20022;-70
2022/05/19 11:12:37;;;;;;;10.18;4.30;;;13.60;70.10;;;;;;4980564;28;20042;-70
2022/05/19 11:15:29;;;;;;;11.00;4.10;;;13.60;70.00;;;;;;4989991;28;20034;-68
2022/05/19 11:18:05;;;;;;;7.03;3.15;;;13.60;70.40;;;;;;4988575;28;20030;-71
2022/05/19 11:20:37;;;;;;;8.00;3.00;;;13.50;70.00;;;;;;4988488;28;20057;-70
2022/05/19 11:23:19;;;;;;;8.68;3.55;;;13.50;68.50;;;;;;4986694;28;20481;-70
2022/05/19 11:29:09;;;;;;;8.15;3.80;;;13.60;68.30;;;;;;4976053;28;20137;-69
2022/05/19 11:31:42;;;;;;;6.60;3.33;;;13.60;71.20;;;;;;4980769;28;20054;-69
2022/05/19 11:34:19;;;;;;;8.15;3.42;;;13.70;71.60;;;;;;4977683;28;20464;-70
2022/05/19 11:37:18;;;;;;;7.60;3.80;;;13.70;71.30;;;;;;4991439;28;20085;-71
2022/05/19 11:40:20;;;;;;;10.30;3.92;;;13.70;70.90;;;;;;4983912;28;20015;-72
2022/05/19 11:43:09;;;;;;;9.98;4.03;;;13.70;71.20;;;;;;4987665;28;20125;-68
2022/05/19 11:45:39;;;;;;;5.03;3.08;;;13.70;71.30;;;;;;4988520;28;20030;-69
2022/05/19 11:57:37;;;;;;;8.05;3.20;;;13.50;69.70;;;;;;4975256;28;19956;-68
2022/05/19 12:00:05;;;;;;;6.35;3.05;;;13.50;69.90;;;;;;4987677;28;20026;-68
2022/05/19 12:02:47;;;;;;;6.13;3.20;;;13.50;70.30;;;;;;4989245;28;20094;-68
2022/05/19 12:05:36;;;;;;;14.35;4.35;;;13.40;70.70;;;;;;4981646;28;20046;-69
2022/05/19 12:08:15;;;;;;;8.38;3.35;;;13.40;71.40;;;;;;4990803;28;20037;-68
2022/05/19 12:10:49;;;;;;;8.20;3.60;;;13.40;71.80;;;;;;4990918;28;20072;-68
2022/05/19 12:13:19;;;;;;;8.30;3.80;;;13.40;72.20;;;;;;4991491;28;20097;-71
2022/05/19 12:15:55;;;;;;;9.05;3.80;;;13.40;72.40;;;;;;4989574;28;20422;-68
2022/05/19 12:18:27;;;;;;;9.70;3.67;;;13.40;73.20;;;;;;4987761;28;20034;-68
2022/05/19 12:21:03;;;;;;;9.85;3.85;;;13.40;73.80;;;;;;4987193;28;20037;-68
2022/05/19 12:23:40;;;;;;;6.63;3.30;;;13.40;73.80;;;;;;4977849;28;20037;-68
2022/05/19 12:26:20;;;;;;;7.43;3.33;;;13.40;74.40;;;;;;4987043;28;20038;-69
2022/05/19 12:28:57;;;;;;;;;;;13.30;74.80;;;;;;4990710;28;20030;-68
2022/05/19 12:34:18;;;;;;;8.55;3.40;;;13.30;72.90;;;;;;4991342;28;20042;-68
2022/05/19 12:36:50;;;;;;;7.90;2.92;;;13.30;73.30;;;;;;4988779;28;20041;-68
2022/05/19 12:39:17;;;;;;;7.75;3.13;;;13.30;72.90;;;;;;4991208;28;20034;-68
2022/05/19 12:41:50;;;;;;;8.95;3.22;;;13.20;73.10;;;;;;4993387;28;20412;-71
2022/05/19 12:44:40;;;;;;;6.70;3.10;;;13.20;72.40;;;;;;4991477;28;20030;-69
2022/05/19 12:47:30;;;;;;;7.22;3.50;;;13.20;72.30;;;;;;4988242;28;20054;-67
2022/05/19 12:50:08;;;;;;;7.75;3.20;;;13.20;72.60;;;;;;4987690;28;20388;-68
2022/05/19 12:52:53;;;;;;;7.90;3.30;;;13.10;73.70;;;;;;4985193;28;20035;-68
2022/05/19 12:55:27;;;;;;;8.52;3.10;;;13.10;73.00;;;;;;4989540;28;20038;-68
2022/05/19 12:57:56;;;;;;;11.25;3.17;;;13.10;73.10;;;;;;4990388;28;20113;-68
2022/05/19 13:00:36;;;;;;;10.50;3.22;;;13.00;73.40;;;;;;4990306;28;20030;-68
2022/05/19 13:03:20;;;;;;;5.75;2.80;;;13.00;72.00;;;;;;4989264;28;20031;-68
2022/05/19 13:05:54;;;;;;;6.53;2.65;;;13.00;72.10;;;;;;4990279;28;20042;-68
2022/05/19 13:08:38;;;;;;;7.32;3.00;;;13.00;71.40;;;;;;4991616;28;20587;-68
2022/05/19 13:11:11;;;;;;;6.65;2.58;;;13.00;71.50;;;;;;4989374;28;20015;-68
2022/05/19 13:13:42;;;;;;;10.18;2.33;;;13.00;71.40;;;;;;4991068;28;20397;-68
2022/05/19 13:16:19;;;;;;;11.00;2.67;;;12.90;71.60;;;;;;4974895;28;20444;-68
2022/05/19 13:26:27;;;;;;;8.45;2.70;;;12.80;71.50;;;;;;4972922;28;20512;-63
2022/05/19 13:32:05;;;;;;;5.07;2.90;;;12.80;70.90;;;;;;4970026;28;20038;-63
2022/05/19 13:34:46;;;;;;;7.63;2.63;;;12.80;71.20;;;;;;4970303;28;20166;-62
2022/05/19 13:37:14;;;;;;;11.38;2.75;;;12.80;70.50;;;;;;4926516;29;20402;-62
2022/05/19 13:39:41;;;;;;;6.32;2.85;;;12.80;71.20;;;;;;4951444;28;20091;-63
2022/05/19 13:42:12;;;;;;;5.82;2.90;;;12.70;71.60;;;;;;4945606;29;20398;-63
2022/05/19 13:44:44;;;;;;;6.40;2.65;;;12.70;71.20;;;;;;4936098;29;20031;-63
2022/05/19 13:47:30;;;;;;;9.73;3.13;;;12.70;71.80;;;;;;4946820;28;20089;-62
2022/05/19 13:49:59;;;;;;;6.63;3.08;;;12.70;71.20;;;;;;4960549;28;20027;-63